Time;durP1;ratioP1;P1;durP2;ratioP2;P2;SDS_P1;SDS_P2;PMS_P1;PMS_P2;Temp;Humidity;BMP_temperature;BMP_pressure;BME280_temperature;BME280_humidity;BME280_pressure;Samples;Min_cycle;Max_cycle;Signal;HPM_P1;HPM_P2
2022/11/03 00:01:09;;;;;;;9.18;3.72;;;;;;;5.57;82.89;101619.72;7393514;19;20035;-65
2022/11/03 00:03:37;;;;;;;8.32;3.60;;;;;;;5.55;83.00;101629.25;7392885;19;20034;-65
2022/11/03 00:06:06;;;;;;;9.32;3.15;;;;;;;5.53;83.32;101624.03;7394181;19;20078;-65
2022/11/03 00:08:37;;;;;;;13.80;3.47;;;;;;;5.52;83.30;101624.91;7398110;19;20493;-65
2022/11/03 00:11:11;;;;;;;10.88;3.80;;;;;;;5.52;83.50;101621.41;7400199;19;20481;-65
2022/11/03 00:13:40;;;;;;;;;;;;;;;5.52;83.89;101611.88;7401535;19;20085;-65
2022/11/03 00:16:13;;;;;;;14.25;3.50;;;;;;;5.51;83.61;101602.31;7398333;19;19985;-66
2022/11/03 00:18:41;;;;;;;11.18;3.42;;;;;;;5.50;83.42;101615.31;7401136;19;20023;-65
2022/11/03 00:21:12;;;;;;;11.30;3.22;;;;;;;5.51;83.53;101622.25;7399993;19;20032;-64
2022/11/03 00:23:42;;;;;;;15.45;6.28;;;;;;;5.52;83.73;101610.97;7398680;19;20485;-67
2022/11/03 00:26:13;;;;;;;8.80;3.30;;;;;;;5.52;83.85;101610.97;7400545;19;20018;-65
2022/11/03 00:28:43;;;;;;;11.18;3.65;;;;;;;5.52;83.97;101603.19;7400867;19;20014;-66
2022/11/03 00:31:16;;;;;;;6.47;3.38;;;;;;;5.52;83.85;101595.38;7399755;19;20170;-65
2022/11/03 00:33:45;;;;;;;8.60;3.35;;;;;;;5.53;83.98;101592.81;7400433;19;20086;-66
2022/11/03 00:36:16;;;;;;;5.03;3.08;;;;;;;5.53;84.31;101589.31;7397622;19;20027;-65
2022/11/03 00:38:45;;;;;;;14.27;4.22;;;;;;;5.54;84.29;101591.06;7400536;19;20074;-65
2022/11/03 00:41:14;;;;;;;9.80;3.00;;;;;;;5.52;84.15;101579.75;7398877;19;20031;-65
2022/11/03 00:43:44;;;;;;;9.52;3.13;;;;;;;5.55;84.20;101585.00;7398232;19;20086;-65
2022/11/03 00:46:15;;;;;;;7.80;2.80;;;;;;;5.55;84.38;101583.28;7397401;19;20082;-65
2022/11/03 00:48:44;;;;;;;7.72;3.90;;;;;;;5.55;84.19;101580.66;7399417;19;20438;-65
2022/11/03 00:51:15;;;;;;;9.73;3.35;;;;;;;5.55;84.18;101574.59;7398564;19;20027;-65
2022/11/03 00:53:45;;;;;;;8.13;3.00;;;;;;;5.57;84.00;101578.06;7397147;19;20019;-65
2022/11/03 00:56:15;;;;;;;11.90;3.33;;;;;;;5.55;84.28;101572.00;7397323;19;20022;-66
2022/11/03 00:58:44;;;;;;;8.90;4.22;;;;;;;5.55;84.17;101574.59;7396675;19;20011;-66
2022/11/03 01:01:17;;;;;;;13.88;3.83;;;;;;;5.54;83.98;101562.44;7398768;19;20031;-65
2022/11/03 01:06:48;;;;;;;9.45;3.90;;;;;;;5.52;83.98;101564.13;7397671;19;20091;-66
2022/11/03 01:06:50;;;;;;;6.93;3.28;;;;;;;5.49;84.11;101571.91;7398909;19;20010;-66
2022/11/03 01:09:20;;;;;;;12.40;3.80;;;;;;;5.47;84.16;101578.81;7397299;19;20053;-66
2022/11/03 01:11:53;;;;;;;7.72;3.67;;;;;;;5.42;84.11;101572.69;7397907;19;20015;-65
2022/11/03 01:14:21;;;;;;;11.07;3.10;;;;;;;5.39;84.15;101582.19;7399239;19;20011;-65
2022/11/03 01:16:53;;;;;;;9.13;3.53;;;;;;;5.34;84.30;101583.84;7397965;19;20086;-65
2022/11/03 01:19:21;;;;;;;9.85;3.55;;;;;;;5.35;84.54;101589.94;7398284;19;20486;-65
2022/11/03 01:21:50;;;;;;;9.00;3.80;;;;;;;5.33;84.49;101589.03;7397125;19;20019;-65
2022/11/03 01:24:18;;;;;;;8.20;4.10;;;;;;;5.32;84.52;101577.78;7396324;19;20018;-65
2022/11/03 01:26:47;;;;;;;10.00;4.05;;;;;;;5.31;84.77;101586.44;7396466;19;20035;-65
2022/11/03 01:29:15;;;;;;;10.70;3.47;;;;;;;5.30;84.71;101582.06;7396297;19;20102;-65
2022/11/03 01:31:44;;;;;;;6.70;3.67;;;;;;;5.30;84.77;101581.22;7396166;19;20023;-65
2022/11/03 01:34:18;;;;;;;13.13;3.70;;;;;;;5.29;84.67;101577.72;7396142;19;20090;-65
2022/11/03 01:36:47;;;;;;;10.23;4.28;;;;;;;5.29;84.90;101575.13;7398634;19;20014;-65
2022/11/03 01:39:18;;;;;;;15.88;3.97;;;;;;;5.28;84.83;101573.41;7397709;19;20014;-65
2022/11/03 01:41:49;;;;;;;13.98;4.22;;;;;;;5.28;84.85;101565.59;7397276;19;20022;-66
2022/11/03 01:44:32;;;;;;;7.45;3.65;;;;;;;5.29;84.53;101563.84;7396251;19;20019;-65
2022/11/03 01:47:10;;;;;;;11.80;3.92;;;;;;;5.27;84.52;101569.03;7398309;19;20014;-66
2022/11/03 01:49:46;;;;;;;10.40;4.05;;;;;;;5.27;84.83;101561.22;7398113;19;20035;-66
2022/11/03 01:52:20;;;;;;;8.60;3.80;;;;;;;5.26;84.57;101564.69;7394741;19;20013;-66
2022/11/03 01:54:53;;;;;;;6.15;3.40;;;;;;;5.27;84.78;101565.53;7398096;19;20035;-66
2022/11/03 01:57:27;;;;;;;8.30;4.03;;;;;;;5.26;84.92;101567.28;7397178;19;20015;-66
2022/11/03 01:59:57;;;;;;;9.30;3.72;;;;;;;5.28;84.65;101567.28;7396027;19;20026;-66
2022/11/03 02:02:25;;;;;;;8.60;3.80;;;;;;;5.26;84.82;101556.88;7395398;19;20043;-66
2022/11/03 02:04:58;;;;;;;6.82;3.50;;;;;;;5.27;84.83;101561.22;7395573;19;20022;-66
2022/11/03 02:07:33;;;;;;;6.13;3.45;;;;;;;5.26;84.79;101559.47;7396923;19;20069;-66
2022/11/03 02:10:01;;;;;;;10.48;3.63;;;;;;;5.27;84.87;101566.44;7395010;19;20091;-66
2022/11/03 02:12:31;;;;;;;8.93;3.45;;;;;;;5.27;84.87;101553.44;7396344;19;20014;-66
2022/11/03 02:15:04;;;;;;;9.25;4.00;;;;;;;5.26;84.95;101540.38;7397465;19;20031;-67
2022/11/03 02:17:34;;;;;;;12.43;4.43;;;;;;;5.27;84.82;101542.13;7397988;19;20073;-66
2022/11/03 02:20:10;;;;;;;10.13;3.67;;;;;;;5.25;84.87;101534.31;7396628;19;20022;-66
2022/11/03 02:22:54;;;;;;;10.20;3.92;;;;;;;5.25;85.00;101539.50;7394842;19;20039;-66
2022/11/03 02:25:50;;;;;;;10.18;3.90;;;;;;;5.24;85.12;101531.69;7394868;19;20418;-66
2022/11/03 02:28:21;;;;;;;10.65;4.38;;;;;;;5.24;84.79;101536.91;7395988;19;20041;-66
2022/11/03 02:30:57;;;;;;;7.47;3.70;;;;;;;5.23;84.80;101533.41;7392809;19;20423;-66
2022/11/03 02:33:38;;;;;;;10.43;3.50;;;;;;;5.22;84.91;101534.28;7395069;19;20022;-65
2022/11/03 02:36:13;;;;;;;16.60;8.80;;;;;;;5.22;84.63;101532.53;7396360;19;20022;-65
2022/11/03 02:38:48;;;;;;;17.77;8.13;;;;;;;5.22;84.89;101535.16;7394937;19;20015;-65
2022/11/03 02:41:28;;;;;;;8.13;3.70;;;;;;;5.22;84.66;101526.47;7395948;19;20094;-66
2022/11/03 02:43:58;;;;;;;8.70;3.45;;;;;;;5.21;84.73;101522.13;7394558;19;20414;-66
2022/11/03 02:46:29;;;;;;;8.73;3.42;;;;;;;5.19;84.94;101519.50;7395553;19;20023;-66
2022/11/03 02:49:04;;;;;;;7.78;3.60;;;;;;;5.19;84.92;101518.63;7394701;19;20026;-65
2022/11/03 02:51:33;;;;;;;10.07;3.95;;;;;;;5.17;84.93;101517.75;7393706;19;20467;-66
2022/11/03 02:54:10;;;;;;;11.60;3.95;;;;;;;5.18;84.94;101514.25;7394223;19;20489;-66
2022/11/03 02:56:50;;;;;;;43.80;21.02;;;;;;;5.16;84.83;101510.78;7396148;19;20018;-66
2022/11/03 02:59:26;;;;;;;14.32;5.63;;;;;;;5.16;84.77;101513.38;7396200;19;20026;-64
2022/11/03 03:02:00;;;;;;;8.32;3.85;;;;;;;5.13;85.05;101501.22;7393743;19;20018;-64
2022/11/03 03:04:32;;;;;;;9.75;3.85;;;;;;;5.13;85.00;101488.22;7394143;19;20023;-64
2022/11/03 03:07:04;;;;;;;9.77;3.80;;;;;;;5.11;85.15;101487.31;7394083;19;20066;-64
2022/11/03 03:09:40;;;;;;;7.22;3.83;;;;;;;5.10;85.01;101482.09;7395515;19;20019;-64
2022/11/03 03:12:13;;;;;;;12.90;3.90;;;;;;;5.09;85.02;101480.34;7394248;19;20078;-64
2022/11/03 03:14:46;;;;;;;7.82;4.15;;;;;;;5.08;85.16;101487.28;7393855;19;20023;-64
2022/11/03 03:17:20;;;;;;;6.32;3.47;;;;;;;5.08;85.13;101484.69;7394958;19;20019;-64
2022/11/03 03:19:50;;;;;;;;;;;;;;;5.07;85.24;101482.94;7395970;19;20018;-64
2022/11/03 03:22:26;;;;;;;7.75;3.80;;;;;;;5.04;84.98;101482.88;7394145;19;19939;-64
2022/11/03 03:25:02;;;;;;;11.40;4.18;;;;;;;5.04;85.10;101482.88;7394361;19;20074;-64
2022/11/03 03:27:36;;;;;;;9.93;3.72;;;;;;;5.02;85.15;101475.06;7394296;19;20041;-64
2022/11/03 03:30:05;;;;;;;;;;;;;;;5.02;85.31;101477.66;7396019;19;20086;-64
2022/11/03 03:32:38;;;;;;;7.93;4.10;;;;;;;5.01;85.02;101478.50;7392657;19;19940;-64
2022/11/03 03:35:10;;;;;;;9.13;4.25;;;;;;;5.00;85.23;101468.09;7392853;19;20026;-64
2022/11/03 03:37:42;;;;;;;13.02;5.25;;;;;;;4.99;85.29;101464.63;7394850;19;20035;-64
2022/11/03 03:40:14;;;;;;;11.00;4.10;;;;;;;4.98;85.34;101459.38;7395316;19;20459;-64
2022/11/03 03:42:46;;;;;;;11.60;3.95;;;;;;;4.96;85.41;101468.91;7399698;19;20039;-64
2022/11/03 03:45:16;;;;;;;7.95;3.83;;;;;;;4.94;85.31;101458.50;7399639;19;20035;-64
2022/11/03 03:47:45;;;;;;;8.25;3.65;;;;;;;4.94;85.45;101460.19;7401800;19;20038;-64
2022/11/03 03:50:14;;;;;;;10.18;3.90;;;;;;;4.90;85.60;101454.09;7401720;19;20039;-64
2022/11/03 03:52:43;;;;;;;9.60;3.60;;;;;;;4.89;85.45;101452.31;7398755;19;20406;-64
2022/11/03 03:55:18;;;;;;;10.00;4.20;;;;;;;4.87;85.61;101446.25;7401504;19;20419;-64
2022/11/03 03:57:50;;;;;;;11.02;4.15;;;;;;;4.85;85.48;101451.44;7401141;19;20514;-64
2022/11/03 04:00:19;;;;;;;7.80;3.83;;;;;;;4.83;85.79;101442.75;7401096;19;20544;-64
2022/11/03 04:02:47;;;;;;;6.70;3.72;;;;;;;4.80;85.57;101442.72;7398756;19;20018;-64
2022/11/03 04:05:16;;;;;;;7.93;3.63;;;;;;;4.79;85.67;101435.75;7399130;19;20090;-64
2022/11/03 04:07:50;;;;;;;9.57;3.63;;;;;;;4.76;85.71;101433.09;7401158;19;20035;-64
2022/11/03 04:10:20;;;;;;;10.20;4.55;;;;;;;4.74;85.80;101437.44;7401361;19;20029;-64
2022/11/03 04:23:36;;;;;;;11.13;4.45;;;;;;;4.57;85.97;101437.19;7400725;19;20006;-64
2022/11/03 04:26:08;;;;;;;9.63;5.15;;;;;;;4.54;86.03;101438.00;7400606;19;20023;-64
2022/11/03 04:28:39;;;;;;;11.18;4.38;;;;;;;4.51;86.00;101440.56;7400732;19;20019;-64
2022/11/03 04:31:12;;;;;;;7.43;4.28;;;;;;;4.48;86.25;101439.66;7398798;19;20018;-64
2022/11/03 04:33:41;;;;;;;11.30;5.50;;;;;;;4.46;86.41;101436.16;7397094;19;20551;-64
2022/11/03 04:36:22;;;;;;;7.85;4.97;;;;;;;4.44;86.34;101436.13;7400051;19;20015;-64
2022/11/03 04:38:51;;;;;;;17.55;7.30;;;;;;;4.39;86.30;101428.25;7400297;19;20035;-64
2022/11/03 04:41:22;;;;;;;11.60;6.05;;;;;;;4.39;86.32;101436.06;7398521;19;20028;-64
2022/11/03 04:43:54;;;;;;;12.80;6.18;;;;;;;4.37;86.65;101431.69;7399141;19;20450;-64
2022/11/03 04:46:27;;;;;;;14.40;6.50;;;;;;;4.35;86.65;101434.28;7397125;19;20011;-64
2022/11/03 04:48:56;;;;;;;12.25;5.95;;;;;;;4.33;86.56;101429.91;7399497;19;20007;-64
2022/11/03 04:51:30;;;;;;;11.95;6.18;;;;;;;4.32;86.98;101429.03;7396698;19;20018;-64
2022/11/03 04:54:04;;;;;;;13.93;6.38;;;;;;;4.30;86.81;101425.53;7396665;19;20018;-64
2022/11/03 04:56:32;;;;;;;16.95;6.03;;;;;;;4.29;87.06;101423.78;7399255;19;20017;-64
2022/11/03 04:59:04;;;;;;;10.90;5.68;;;;;;;4.27;87.14;101414.22;7397443;19;20022;-64
2022/11/03 05:01:33;;;;;;;15.90;6.38;;;;;;;4.25;87.04;101411.59;7399296;19;20416;-64
2022/11/03 05:04:01;;;;;;;13.38;6.20;;;;;;;4.25;87.07;101427.19;7399067;19;20023;-64
2022/11/03 05:06:31;;;;;;;15.52;7.00;;;;;;;4.23;87.35;101421.09;7398602;19;20026;-65
2022/11/03 05:09:02;;;;;;;13.98;6.60;;;;;;;4.21;87.32;101423.66;7396666;19;20027;-64
2022/11/03 05:11:33;;;;;;;13.50;6.20;;;;;;;4.20;87.44;101421.06;7396705;19;20031;-63
2022/11/03 05:14:11;;;;;;;12.95;6.75;;;;;;;4.20;87.43;101413.25;7398965;19;20027;-64
2022/11/03 05:16:40;;;;;;;14.07;6.65;;;;;;;4.16;87.27;101398.50;7398966;19;20022;-64
2022/11/03 05:19:14;;;;;;;16.48;7.32;;;;;;;4.18;87.43;101405.47;7398636;19;20019;-63
2022/11/03 05:21:43;;;;;;;13.13;7.18;;;;;;;4.17;87.46;101406.31;7396133;19;20022;-64
2022/11/03 05:24:14;;;;;;;11.43;5.95;;;;;;;4.16;87.48;101401.09;7397592;19;20018;-63
2022/11/03 05:26:44;;;;;;;20.65;6.03;;;;;;;4.14;87.58;101393.25;7398022;19;20018;-64
2022/11/03 05:29:20;;;;;;;14.77;6.63;;;;;;;4.13;87.54;101390.63;7396156;19;20026;-64
2022/11/03 05:31:50;;;;;;;15.65;6.75;;;;;;;4.11;87.67;101379.34;7396242;19;20014;-64
2022/11/03 05:34:36;;;;;;;14.02;7.60;;;;;;;4.08;87.74;101372.38;7395497;19;20027;-64
2022/11/03 05:37:22;;;;;;;14.63;7.45;;;;;;;4.06;87.56;101371.50;7395642;19;20028;-64
2022/11/03 05:39:52;;;;;;;19.02;8.38;;;;;;;4.04;87.55;101366.28;7398090;19;20021;-64
2022/11/03 05:42:29;;;;;;;15.60;7.63;;;;;;;4.02;87.73;101361.91;7396612;19;20031;-64
2022/11/03 05:45:03;;;;;;;12.77;7.93;;;;;;;3.98;87.76;101363.59;7397158;19;20023;-64
2022/11/03 05:47:36;;;;;;;19.27;8.90;;;;;;;3.96;87.86;101356.63;7398077;19;20018;-64
2022/11/03 05:50:17;;;;;;;25.27;11.70;;;;;;;3.94;88.14;101356.59;7397743;19;20035;-64
2022/11/03 05:52:47;;;;;;;19.90;10.57;;;;;;;3.91;88.20;101347.03;7394484;19;20070;-65
2022/11/03 05:55:31;;;;;;;14.45;7.90;;;;;;;3.90;88.68;101345.31;7394868;19;20104;-64
2022/11/03 05:58:06;;;;;;;14.50;7.13;;;;;;;3.89;88.82;101346.16;7395371;19;20028;-64
2022/11/03 06:00:41;;;;;;;13.30;6.32;;;;;;;3.87;88.68;101347.84;7397402;19;20035;-64
2022/11/03 06:03:15;;;;;;;11.98;6.00;;;;;;;3.87;88.82;101353.03;7395483;19;20023;-66
2022/11/03 06:05:44;;;;;;;17.63;6.88;;;;;;;3.87;88.63;101352.19;7395095;19;20503;-65
2022/11/03 06:08:20;;;;;;;16.50;6.43;;;;;;;3.85;88.73;101351.25;7394888;19;20035;-64
2022/11/03 06:10:52;;;;;;;15.43;6.93;;;;;;;3.83;88.73;101353.84;7396573;19;20031;-64
2022/11/03 06:13:24;;;;;;;17.77;6.05;;;;;;;3.82;89.11;101356.44;7396411;19;20017;-64
2022/11/03 06:15:59;;;;;;;14.38;5.68;;;;;;;3.81;89.09;101354.66;7395491;19;20031;-64
2022/11/03 06:18:32;;;;;;;13.50;5.40;;;;;;;3.81;89.43;101350.34;7396476;19;20363;-64
2022/11/03 06:21:07;;;;;;;12.68;5.47;;;;;;;3.81;89.44;101354.66;7396272;19;20376;-63
2022/11/03 06:23:37;;;;;;;12.45;5.68;;;;;;;3.81;89.46;101354.66;7396273;19;20401;-65
2022/11/03 06:26:10;;;;;;;8.15;4.85;;;;;;;3.81;89.29;101352.06;7394498;19;20022;-65
2022/11/03 06:28:41;;;;;;;11.52;5.47;;;;;;;3.81;89.12;101352.06;7397020;19;20015;-66
2022/11/03 06:31:20;;;;;;;13.02;5.55;;;;;;;3.81;89.20;101350.34;7396267;19;20019;-66
2022/11/03 06:33:48;;;;;;;13.30;5.20;;;;;;;3.81;89.20;101337.34;7395108;19;20039;-65
2022/11/03 06:36:20;;;;;;;11.63;5.32;;;;;;;3.80;89.49;101333.00;7394476;19;20018;-66
2022/11/03 06:38:54;;;;;;;9.68;4.88;;;;;;;3.79;89.40;101333.88;7396465;19;20015;-66
2022/11/03 06:41:26;;;;;;;11.93;5.90;;;;;;;3.82;89.96;101335.66;7395664;19;20023;-66
2022/11/03 06:43:56;;;;;;;14.23;6.00;;;;;;;3.83;89.48;101338.28;7394469;19;20025;-66
2022/11/03 06:46:28;;;;;;;16.90;7.68;;;;;;;3.84;89.45;101345.22;7394159;19;20035;-67
2022/11/03 06:49:00;;;;;;;17.00;7.20;;;;;;;3.87;89.28;101339.19;7393778;19;20014;-66
2022/11/03 06:51:30;;;;;;;13.35;6.43;;;;;;;3.87;89.36;101332.25;7394402;19;20510;-67
2022/11/03 06:54:01;;;;;;;12.82;5.90;;;;;;;3.90;89.82;101334.03;7394750;19;20028;-66
2022/11/03 06:56:33;;;;;;;20.27;9.07;;;;;;;3.91;89.69;101333.19;7396139;19;20018;-67
2022/11/03 06:59:02;;;;;;;11.25;5.22;;;;;;;3.94;89.64;101333.22;7397659;19;20021;-67
2022/11/03 07:01:36;;;;;;;13.65;4.90;;;;;;;3.95;89.69;101340.16;7394023;19;20499;-67
2022/11/03 07:04:14;;;;;;;8.45;4.63;;;;;;;3.98;89.85;101329.84;7395729;19;20055;-68
2022/11/03 07:06:43;;;;;;;15.55;5.00;;;;;;;4.00;89.83;101325.53;7393967;19;20070;-68
2022/11/03 07:09:18;;;;;;;10.82;5.00;;;;;;;4.03;89.78;101316.91;7394338;19;20027;-69
2022/11/03 07:11:49;;;;;;;11.20;5.07;;;;;;;4.05;90.12;101321.28;7393238;19;20384;-68
2022/11/03 07:14:21;;;;;;;12.15;4.90;;;;;;;4.11;90.09;101315.31;7395264;19;20032;-67
2022/11/03 07:16:54;;;;;;;15.10;5.40;;;;;;;4.14;90.01;101323.13;7393325;19;20361;-68
2022/11/03 07:19:25;;;;;;;9.65;5.20;;;;;;;4.18;89.97;101327.53;7394993;19;20015;-68
2022/11/03 07:21:56;;;;;;;9.27;4.82;;;;;;;4.22;89.93;101323.22;7393881;19;20027;-68
2022/11/03 07:24:27;;;;;;;9.95;4.47;;;;;;;4.28;90.05;101332.84;7394506;19;20028;-68
2022/11/03 07:27:05;;;;;;;12.45;5.13;;;;;;;4.31;89.85;101336.38;7392995;19;20036;-67
2022/11/03 07:29:34;;;;;;;14.63;5.18;;;;;;;4.36;89.88;101337.31;7394464;19;20059;-67
2022/11/03 07:32:16;;;;;;;8.02;4.20;;;;;;;4.38;89.90;101330.38;7392705;19;20440;-67
2022/11/03 07:34:45;;;;;;;11.35;4.85;;;;;;;4.44;90.04;101337.41;7391616;19;20364;-67
2022/11/03 07:37:20;;;;;;;10.32;5.65;;;;;;;4.48;89.98;101333.13;7391190;19;20018;-67
2022/11/03 07:39:49;;;;;;;14.60;6.25;;;;;;;4.55;89.94;101337.53;7394047;19;20403;-67
2022/11/03 07:42:22;;;;;;;12.07;5.30;;;;;;;4.61;89.97;101328.94;7391692;19;20499;-68
2022/11/03 07:44:51;;;;;;;11.07;5.03;;;;;;;4.67;90.05;101316.03;7391481;19;20022;-67
2022/11/03 07:47:25;;;;;;;15.20;4.85;;;;;;;4.71;89.80;101312.59;7393625;19;20060;-67
2022/11/03 07:49:54;;;;;;;;;;;;;;;4.79;90.33;101310.06;7394405;19;20495;-68
2022/11/03 07:52:25;;;;;;;12.65;4.18;;;;;;;4.87;89.81;101309.31;7392301;19;19922;-69
2022/11/03 07:54:57;;;;;;;10.55;4.22;;;;;;;4.95;89.72;101300.72;7391681;19;20011;-68
2022/11/03 07:57:29;;;;;;;9.63;4.05;;;;;;;5.01;89.44;101291.25;7393687;19;20010;-68
2022/11/03 08:00:02;;;;;;;9.23;3.42;;;;;;;5.10;89.41;101289.59;7394121;19;20026;-68
2022/11/03 08:02:48;;;;;;;9.48;3.60;;;;;;;5.20;89.39;101286.22;7392064;19;20029;-67
2022/11/03 08:05:16;;;;;;;9.93;3.97;;;;;;;5.28;89.20;101289.78;7391983;19;20031;-68
2022/11/03 08:07:45;;;;;;;9.52;4.03;;;;;;;5.36;89.06;101288.09;7393005;19;20022;-68
2022/11/03 08:10:13;;;;;;;9.60;4.05;;;;;;;5.47;88.69;101284.72;7393299;19;20134;-67
2022/11/03 08:12:42;;;;;;;9.43;3.65;;;;;;;5.56;88.71;101282.22;7391359;19;20019;-67
2022/11/03 08:15:11;;;;;;;7.50;3.28;;;;;;;5.66;88.39;101280.53;7392999;19;20018;-67
2022/11/03 08:17:43;;;;;;;11.35;4.40;;;;;;;5.75;88.30;101275.41;7392004;19;20026;-68
2022/11/03 08:20:12;;;;;;;11.95;3.95;;;;;;;5.84;88.27;101275.44;7392863;19;20360;-68
2022/11/03 08:22:41;;;;;;;9.00;3.70;;;;;;;5.93;87.86;101263.34;7389982;19;20478;-68
2022/11/03 08:25:10;;;;;;;8.98;3.53;;;;;;;6.02;87.83;101266.03;7391811;19;20478;-68
2022/11/03 08:27:38;;;;;;;10.20;4.53;;;;;;;6.11;87.66;101263.47;7394423;19;20011;-67
2022/11/03 08:30:08;;;;;;;10.02;3.38;;;;;;;6.21;87.48;101253.13;7399129;19;20347;-68
2022/11/03 08:32:37;;;;;;;7.45;3.47;;;;;;;6.30;87.25;101259.22;7396977;19;20047;-69
2022/11/03 08:35:09;;;;;;;8.77;2.55;;;;;;;6.39;87.05;101252.31;7396215;19;20018;-67
2022/11/03 08:37:37;;;;;;;9.35;2.78;;;;;;;6.48;86.59;101260.16;7399321;19;20507;-67
2022/11/03 08:40:07;;;;;;;9.30;3.08;;;;;;;6.55;86.27;101248.88;7399144;19;20014;-68
2022/11/03 08:42:36;;;;;;;5.22;2.75;;;;;;;6.64;85.94;101251.50;7396941;19;20031;-68
2022/11/03 08:45:05;;;;;;;7.68;2.35;;;;;;;6.74;85.39;101241.13;7399350;19;20036;-67
2022/11/03 08:47:33;;;;;;;7.65;2.90;;;;;;;6.85;85.14;101242.00;7396471;19;20489;-69
2022/11/03 08:50:08;;;;;;;8.32;2.50;;;;;;;6.95;84.87;101233.31;7399153;19;20519;-68
2022/11/03 08:52:39;;;;;;;3.90;2.13;;;;;;;7.07;84.16;101237.66;7397529;19;20542;-67
2022/11/03 08:55:08;;;;;;;7.65;3.13;;;;;;;7.21;83.64;101227.25;7401399;19;20006;-68
2022/11/03 08:57:37;;;;;;;5.95;2.35;;;;;;;7.34;82.25;101225.47;7401044;19;20022;-68
2022/11/03 09:00:07;;;;;;;8.05;2.33;;;;;;;7.48;82.02;101217.63;7399558;19;20360;-67
2022/11/03 09:02:36;;;;;;;19.23;7.35;;;;;;;7.63;80.74;101217.63;7398195;19;20019;-68
2022/11/03 09:05:06;;;;;;;18.88;7.60;;;;;;;7.77;80.22;101221.94;7399055;19;20039;-68
2022/11/03 09:07:35;;;;;;;8.18;2.92;;;;;;;7.90;79.95;101214.94;7396959;19;20356;-68
2022/11/03 09:10:07;;;;;;;19.45;9.27;;;;;;;8.03;79.49;101210.56;7398777;19;20114;-67
2022/11/03 09:12:35;;;;;;;10.88;3.28;;;;;;;8.14;78.45;101203.56;7396466;19;20044;-69
2022/11/03 09:15:04;;;;;;;9.70;3.10;;;;;;;8.26;77.85;101198.25;7396373;19;20031;-68
2022/11/03 09:17:33;;;;;;;7.05;2.40;;;;;;;8.39;77.06;101196.47;7396463;19;20014;-67
2022/11/03 09:20:01;;;;;;;6.95;1.90;;;;;;;8.52;76.67;101193.78;7395701;19;20011;-68
2022/11/03 09:22:30;;;;;;;5.18;1.70;;;;;;;8.62;76.59;101190.25;7396248;19;20019;-68
2022/11/03 09:24:58;;;;;;;6.47;1.98;;;;;;;8.73;76.24;101184.94;7396449;19;20011;-68
2022/11/03 09:27:29;;;;;;;7.43;2.30;;;;;;;8.82;75.78;101186.63;7395641;19;20087;-68
2022/11/03 09:29:58;;;;;;;8.25;2.58;;;;;;;8.90;76.03;101185.69;7399971;19;20022;-68
2022/11/03 09:32:26;;;;;;;4.68;1.55;;;;;;;9.00;75.06;101189.09;7397220;19;20084;-68
2022/11/03 09:34:55;;;;;;;11.45;2.35;;;;;;;9.10;74.62;101182.06;7395474;19;20018;-68
2022/11/03 09:37:24;;;;;;;7.25;1.83;;;;;;;9.19;74.26;101178.47;7397741;19;20091;-68
2022/11/03 09:39:52;;;;;;;3.95;1.80;;;;;;;9.28;73.91;101170.53;7397158;19;20019;-68
2022/11/03 09:42:22;;;;;;;4.78;1.75;;;;;;;9.37;73.65;101167.81;7396546;19;20123;-68
2022/11/03 09:44:54;;;;;;;5.60;2.33;;;;;;;9.43;73.21;101159.91;7395771;19;20031;-68
2022/11/03 09:47:27;;;;;;;7.05;1.85;;;;;;;9.52;72.58;101152.84;7396269;19;20025;-68
2022/11/03 09:49:58;;;;;;;8.10;2.72;;;;;;;9.58;72.40;101145.78;7395401;19;20513;-68
2022/11/03 09:52:27;;;;;;;4.13;1.85;;;;;;;9.68;72.55;101148.28;7395575;19;20015;-68
2022/11/03 09:54:58;;;;;;;3.28;1.80;;;;;;;9.75;72.17;101139.47;7396364;19;20094;-69
2022/11/03 09:57:29;;;;;;;8.38;2.00;;;;;;;9.83;71.92;101137.63;7395217;19;20518;-68
2022/11/03 10:00:00;;;;;;;6.38;2.08;;;;;;;9.91;71.67;101134.91;7397894;19;20073;-68
2022/11/03 10:02:31;;;;;;;7.95;2.08;;;;;;;9.97;71.58;101129.59;7395439;19;20042;-68
2022/11/03 10:05:01;;;;;;;4.60;2.17;;;;;;;10.04;71.37;101117.28;7395438;19;20589;-68
2022/11/03 10:07:32;;;;;;;6.90;2.33;;;;;;;10.11;70.73;101111.91;7395311;19;20492;-68
2022/11/03 10:10:01;;;;;;;6.13;1.63;;;;;;;10.20;70.46;101112.69;7394776;19;20015;-68
2022/11/03 10:12:33;;;;;;;4.75;2.03;;;;;;;10.28;69.85;101110.81;7394935;19;20019;-68
2022/11/03 10:15:05;;;;;;;6.43;1.63;;;;;;;10.36;69.78;101103.75;7397245;19;20099;-68
2022/11/03 10:17:33;;;;;;;5.20;1.90;;;;;;;10.46;69.88;101106.22;7396858;19;20015;-68
2022/11/03 10:20:03;;;;;;;6.25;2.00;;;;;;;10.54;69.74;101105.19;7396225;19;20019;-68
2022/11/03 10:22:32;;;;;;;6.18;1.60;;;;;;;10.61;69.45;101100.72;7395129;19;20081;-68
2022/11/03 10:25:31;;;;;;;7.53;2.30;;;;;;;10.69;67.44;101097.97;7394151;19;20032;-68
2022/11/03 10:28:17;;;;;;;9.35;2.35;;;;;;;10.77;66.90;101090.84;7394407;19;20482;-69
2022/11/03 10:30:56;;;;;;;5.68;2.03;;;;;;;10.85;66.57;101094.19;7394639;19;20035;-68
2022/11/03 10:33:27;;;;;;;8.57;2.47;;;;;;;10.91;67.55;101088.81;7395579;19;20490;-68
2022/11/03 10:35:58;;;;;;;7.43;2.55;;;;;;;10.99;67.91;101085.22;7394404;19;20026;-67
2022/11/03 10:38:29;;;;;;;24.20;10.52;;;;;;;11.05;67.80;101072.81;7394727;19;20027;-68
2022/11/03 10:40:58;;;;;;;11.82;6.25;;;;;;;11.14;67.65;101070.94;7394405;19;20023;-68
2022/11/03 10:43:26;;;;;;;8.23;3.40;;;;;;;11.21;67.47;101065.53;7393580;19;20028;-68
2022/11/03 10:46:12;;;;;;;7.07;2.42;;;;;;;11.30;65.91;101058.34;7394992;19;20011;-67
2022/11/03 10:48:41;;;;;;;5.55;1.95;;;;;;;11.36;66.86;101050.34;7394139;19;20015;-68
2022/11/03 10:51:13;;;;;;;7.03;2.67;;;;;;;11.39;66.38;101047.69;7393722;19;20019;-68
2022/11/03 10:53:44;;;;;;;5.28;1.88;;;;;;;11.45;66.33;101037.06;7393576;19;20020;-69
2022/11/03 10:56:12;;;;;;;10.57;2.67;;;;;;;11.49;66.13;101038.72;7396185;19;20021;-68
2022/11/03 10:58:41;;;;;;;5.95;1.70;;;;;;;11.53;65.84;101036.88;7395725;19;20018;-66
2022/11/03 11:01:13;;;;;;;7.47;2.35;;;;;;;11.56;65.15;101040.31;7393466;19;20478;-69
2022/11/03 11:03:44;;;;;;;13.30;4.32;;;;;;;11.58;65.51;101035.88;7396072;19;20031;-67
2022/11/03 11:06:20;;;;;;;17.60;3.45;;;;;;;11.62;64.34;101028.81;7394204;19;20034;-67
2022/11/03 11:08:49;;;;;;;12.52;4.43;;;;;;;11.65;65.00;101025.25;7395200;19;20018;-68
2022/11/03 11:11:18;;;;;;;4.88;2.13;;;;;;;11.68;64.76;101018.16;7394834;19;20015;-68
2022/11/03 11:13:47;;;;;;;5.95;2.13;;;;;;;11.71;64.48;101009.34;7394769;19;20443;-68
2022/11/03 11:16:45;;;;;;;5.53;1.98;;;;;;;11.73;63.32;101010.19;7393238;19;20078;-70
2022/11/03 11:19:16;;;;;;;8.68;2.45;;;;;;;11.76;64.35;100999.59;7394244;19;20392;-68
2022/11/03 11:22:00;;;;;;;6.65;2.08;;;;;;;11.77;63.59;100996.06;7394893;19;20039;-67
2022/11/03 11:24:59;;;;;;;5.63;1.95;;;;;;;11.81;63.97;100986.34;7393566;19;20022;-68
2022/11/03 11:28:01;;;;;;;6.35;1.77;;;;;;;11.84;64.41;100987.16;7392690;19;20018;-68
2022/11/03 11:31:05;;;;;;;4.82;1.90;;;;;;;11.88;62.29;100975.66;7394812;19;20011;-68
2022/11/03 11:33:35;;;;;;;9.63;3.67;;;;;;;11.93;64.51;100972.03;7393931;19;20010;-68
2022/11/03 11:36:28;;;;;;;10.13;4.20;;;;;;;11.98;64.43;100962.31;7392339;19;20021;-70
2022/11/03 11:39:01;;;;;;;14.82;7.28;;;;;;;12.03;64.38;100966.56;7392324;19;20033;-67
2022/11/03 11:42:00;;;;;;;6.75;2.20;;;;;;;12.08;63.56;100958.56;7392554;19;20032;-71
2022/11/03 11:44:52;;;;;;;8.00;2.30;;;;;;;12.11;63.03;100950.59;7393809;19;20486;-68
2022/11/03 11:47:49;;;;;;;6.85;1.95;;;;;;;12.16;63.37;100950.50;7391688;19;20014;-67
2022/11/03 11:50:28;;;;;;;6.50;2.60;;;;;;;12.21;64.10;100953.88;7393926;19;20384;-67
2022/11/03 11:53:06;;;;;;;5.85;2.30;;;;;;;12.25;63.11;100944.13;7392020;19;20011;-67
2022/11/03 11:55:42;;;;;;;6.47;3.13;;;;;;;12.29;63.61;100943.16;7394805;19;20032;-68
2022/11/03 11:58:20;;;;;;;7.03;3.05;;;;;;;12.32;63.14;100932.53;7393648;19;20028;-67
2022/11/03 12:00:57;;;;;;;8.95;2.80;;;;;;;12.34;62.54;100926.31;7392210;19;20027;-69
2022/11/03 12:03:30;;;;;;;15.35;6.13;;;;;;;12.37;63.15;100928.00;7399077;19;20021;-67
2022/11/03 12:05:58;;;;;;;12.98;5.75;;;;;;;12.40;63.34;100922.69;7403038;19;20033;-67